sensor_id;sensor_type;location;lat;lon;timestamp;P1;durP1;ratioP1;P2;durP2;ratioP2
17985;SDS011;9118;48.122;11.546;2023-04-25T00:00:11;3.00;;;2.77;;
17985;SDS011;9118;48.122;11.546;2023-04-25T00:02:40;4.63;;;2.80;;
17985;SDS011;9118;48.122;11.546;2023-04-25T00:05:09;2.90;;;2.70;;
17985;SDS011;9118;48.122;11.546;2023-04-25T00:07:36;6.00;;;2.90;;
17985;SDS011;9118;48.122;11.546;2023-04-25T00:10:04;2.90;;;2.70;;
17985;SDS011;9118;48.122;11.546;2023-04-25T00:12:32;3.20;;;2.90;;
17985;SDS011;9118;48.122;11.546;2023-04-25T00:14:59;3.33;;;2.80;;
17985;SDS011;9118;48.122;11.546;2023-04-25T00:17:26;3.70;;;3.00;;
17985;SDS011;9118;48.122;11.546;2023-04-25T00:19:54;2.97;;;2.60;;
17985;SDS011;9118;48.122;11.546;2023-04-25T00:22:24;3.60;;;2.60;;
17985;SDS011;9118;48.122;11.546;2023-04-25T00:24:52;3.80;;;3.10;;
17985;SDS011;9118;48.122;11.546;2023-04-25T00:27:22;2.93;;;2.73;;
17985;SDS011;9118;48.122;11.546;2023-04-25T00:29:49;3.77;;;2.90;;
17985;SDS011;9118;48.122;11.546;2023-04-25T00:32:16;5.40;;;3.73;;
17985;SDS011;9118;48.122;11.546;2023-04-25T00:34:43;5.03;;;3.50;;
17985;SDS011;9118;48.122;11.546;2023-04-25T00:37:10;4.97;;;3.53;;
17985;SDS011;9118;48.122;11.546;2023-04-25T00:39:39;7.57;;;4.90;;
17985;SDS011;9118;48.122;11.546;2023-04-25T00:42:06;11.30;;;6.87;;
17985;SDS011;9118;48.122;11.546;2023-04-25T00:44:34;10.97;;;4.87;;
17985;SDS011;9118;48.122;11.546;2023-04-25T00:47:03;6.30;;;3.50;;
17985;SDS011;9118;48.122;11.546;2023-04-25T00:49:31;5.67;;;3.63;;
17985;SDS011;9118;48.122;11.546;2023-04-25T00:51:58;7.27;;;4.50;;
17985;SDS011;9118;48.122;11.546;2023-04-25T00:54:26;5.87;;;3.83;;
17985;SDS011;9118;48.122;11.546;2023-04-25T00:56:54;5.90;;;3.67;;
17985;SDS011;9118;48.122;11.546;2023-04-25T00:59:22;7.13;;;3.60;;
17985;SDS011;9118;48.122;11.546;2023-04-25T01:01:49;3.40;;;3.10;;
17985;SDS011;9118;48.122;11.546;2023-04-25T01:04:17;5.23;;;3.00;;
17985;SDS011;9118;48.122;11.546;2023-04-25T01:06:45;4.03;;;3.00;;
17985;SDS011;9118;48.122;11.546;2023-04-25T01:09:13;3.50;;;3.00;;
17985;SDS011;9118;48.122;11.546;2023-04-25T01:11:41;4.20;;;2.90;;
17985;SDS011;9118;48.122;11.546;2023-04-25T01:14:09;3.73;;;2.77;;
17985;SDS011;9118;48.122;11.546;2023-04-25T01:16:36;3.47;;;2.87;;
17985;SDS011;9118;48.122;11.546;2023-04-25T01:19:04;8.30;;;4.93;;
17985;SDS011;9118;48.122;11.546;2023-04-25T01:21:37;5.30;;;3.33;;
17985;SDS011;9118;48.122;11.546;2023-04-25T01:24:05;6.77;;;4.00;;
17985;SDS011;9118;48.122;11.546;2023-04-25T01:26:33;5.03;;;3.63;;
17985;SDS011;9118;48.122;11.546;2023-04-25T01:29:01;6.37;;;3.13;;
17985;SDS011;9118;48.122;11.546;2023-04-25T01:31:29;7.73;;;4.27;;
17985;SDS011;9118;48.122;11.546;2023-04-25T01:33:58;4.23;;;3.10;;
17985;SDS011;9118;48.122;11.546;2023-04-25T01:36:26;6.00;;;3.50;;
17985;SDS011;9118;48.122;11.546;2023-04-25T01:38:54;3.73;;;3.33;;
17985;SDS011;9118;48.122;11.546;2023-04-25T01:41:22;2.97;;;2.77;;
17985;SDS011;9118;48.122;11.546;2023-04-25T01:43:49;3.70;;;2.80;;
17985;SDS011;9118;48.122;11.546;2023-04-25T01:46:16;4.20;;;3.40;;
17985;SDS011;9118;48.122;11.546;2023-04-25T01:48:44;4.10;;;3.13;;
17985;SDS011;9118;48.122;11.546;2023-04-25T01:51:11;3.30;;;3.00;;
17985;SDS011;9118;48.122;11.546;2023-04-25T01:53:39;3.40;;;2.80;;
17985;SDS011;9118;48.122;11.546;2023-04-25T01:56:08;4.47;;;3.03;;
17985;SDS011;9118;48.122;11.546;2023-04-25T01:58:35;4.27;;;3.50;;
17985;SDS011;9118;48.122;11.546;2023-04-25T02:01:02;3.77;;;3.30;;
17985;SDS011;9118;48.122;11.546;2023-04-25T02:03:31;4.40;;;3.37;;
17985;SDS011;9118;48.122;11.546;2023-04-25T02:06:01;3.47;;;3.17;;
17985;SDS011;9118;48.122;11.546;2023-04-25T02:08:28;3.40;;;3.10;;
17985;SDS011;9118;48.122;11.546;2023-04-25T02:10:56;3.17;;;2.87;;
17985;SDS011;9118;48.122;11.546;2023-04-25T02:13:25;5.03;;;3.07;;
17985;SDS011;9118;48.122;11.546;2023-04-25T02:15:52;3.40;;;3.10;;
17985;SDS011;9118;48.122;11.546;2023-04-25T02:18:19;4.80;;;3.10;;
17985;SDS011;9118;48.122;11.546;2023-04-25T02:20:46;6.70;;;3.40;;
17985;SDS011;9118;48.122;11.546;2023-04-25T02:23:13;3.30;;;2.83;;
17985;SDS011;9118;48.122;11.546;2023-04-25T02:25:41;5.00;;;3.20;;
17985;SDS011;9118;48.122;11.546;2023-04-25T02:28:09;4.03;;;3.43;;
17985;SDS011;9118;48.122;11.546;2023-04-25T02:30:37;3.30;;;3.00;;
17985;SDS011;9118;48.122;11.546;2023-04-25T02:33:05;4.37;;;3.03;;
17985;SDS011;9118;48.122;11.546;2023-04-25T02:35:32;5.23;;;3.20;;
17985;SDS011;9118;48.122;11.546;2023-04-25T02:38:00;5.20;;;3.00;;
17985;SDS011;9118;48.122;11.546;2023-04-25T02:40:27;7.27;;;3.47;;
17985;SDS011;9118;48.122;11.546;2023-04-25T02:42:55;3.37;;;3.07;;
17985;SDS011;9118;48.122;11.546;2023-04-25T02:45:22;5.03;;;2.93;;
17985;SDS011;9118;48.122;11.546;2023-04-25T02:47:50;4.30;;;2.93;;
17985;SDS011;9118;48.122;11.546;2023-04-25T02:50:17;3.47;;;3.17;;
17985;SDS011;9118;48.122;11.546;2023-04-25T02:52:46;3.50;;;3.10;;
17985;SDS011;9118;48.122;11.546;2023-04-25T02:55:13;4.10;;;3.23;;
17985;SDS011;9118;48.122;11.546;2023-04-25T02:57:40;3.90;;;3.10;;
17985;SDS011;9118;48.122;11.546;2023-04-25T03:00:08;4.27;;;3.50;;
17985;SDS011;9118;48.122;11.546;2023-04-25T03:02:36;4.37;;;3.27;;
17985;SDS011;9118;48.122;11.546;2023-04-25T03:05:06;3.90;;;3.23;;
17985;SDS011;9118;48.122;11.546;2023-04-25T03:07:34;4.33;;;3.40;;
17985;SDS011;9118;48.122;11.546;2023-04-25T03:10:01;7.47;;;3.80;;
17985;SDS011;9118;48.122;11.546;2023-04-25T03:12:28;4.13;;;3.20;;
17985;SDS011;9118;48.122;11.546;2023-04-25T03:14:55;4.23;;;3.23;;
17985;SDS011;9118;48.122;11.546;2023-04-25T03:17:22;4.03;;;3.13;;
17985;SDS011;9118;48.122;11.546;2023-04-25T03:19:50;4.53;;;3.27;;
17985;SDS011;9118;48.122;11.546;2023-04-25T03:22:18;5.40;;;3.40;;
17985;SDS011;9118;48.122;11.546;2023-04-25T03:24:49;6.23;;;3.60;;
17985;SDS011;9118;48.122;11.546;2023-04-25T03:27:16;4.13;;;3.27;;
17985;SDS011;9118;48.122;11.546;2023-04-25T03:29:44;8.27;;;4.03;;
17985;SDS011;9118;48.122;11.546;2023-04-25T03:32:11;3.10;;;2.80;;
17985;SDS011;9118;48.122;11.546;2023-04-25T03:34:38;4.10;;;3.00;;
17985;SDS011;9118;48.122;11.546;2023-04-25T03:37:05;3.53;;;3.23;;
17985;SDS011;9118;48.122;11.546;2023-04-25T03:39:34;6.43;;;2.90;;
17985;SDS011;9118;48.122;11.546;2023-04-25T03:42:02;2.80;;;2.60;;
17985;SDS011;9118;48.122;11.546;2023-04-25T03:44:33;3.97;;;3.00;;
17985;SDS011;9118;48.122;11.546;2023-04-25T03:47:00;3.00;;;2.70;;
17985;SDS011;9118;48.122;11.546;2023-04-25T03:49:34;3.37;;;2.90;;
17985;SDS011;9118;48.122;11.546;2023-04-25T03:52:01;3.53;;;2.87;;
17985;SDS011;9118;48.122;11.546;2023-04-25T03:54:28;2.87;;;2.60;;
17985;SDS011;9118;48.122;11.546;2023-04-25T03:56:57;3.80;;;2.40;;
17985;SDS011;9118;48.122;11.546;2023-04-25T03:59:24;4.30;;;2.67;;
17985;SDS011;9118;48.122;11.546;2023-04-25T04:01:52;2.97;;;2.47;;
17985;SDS011;9118;48.122;11.546;2023-04-25T04:04:19;3.03;;;2.70;;
17985;SDS011;9118;48.122;11.546;2023-04-25T04:06:47;2.77;;;2.57;;
17985;SDS011;9118;48.122;11.546;2023-04-25T04:09:17;3.77;;;2.50;;
17985;SDS011;9118;48.122;11.546;2023-04-25T04:11:45;4.00;;;2.70;;
17985;SDS011;9118;48.122;11.546;2023-04-25T04:14:14;3.17;;;2.63;;
17985;SDS011;9118;48.122;11.546;2023-04-25T04:16:41;4.43;;;2.70;;
17985;SDS011;9118;48.122;11.546;2023-04-25T04:19:08;4.53;;;2.47;;
17985;SDS011;9118;48.122;11.546;2023-04-25T04:21:35;3.83;;;2.67;;
17985;SDS011;9118;48.122;11.546;2023-04-25T04:24:03;2.80;;;2.53;;
17985;SDS011;9118;48.122;11.546;2023-04-25T04:26:31;3.23;;;2.40;;
17985;SDS011;9118;48.122;11.546;2023-04-25T04:28:59;3.30;;;2.40;;
17985;SDS011;9118;48.122;11.546;2023-04-25T04:31:28;3.60;;;2.50;;
17985;SDS011;9118;48.122;11.546;2023-04-25T04:33:55;3.73;;;2.67;;
17985;SDS011;9118;48.122;11.546;2023-04-25T04:36:22;6.90;;;4.00;;
17985;SDS011;9118;48.122;11.546;2023-04-25T04:38:51;7.67;;;4.60;;
17985;SDS011;9118;48.122;11.546;2023-04-25T04:41:21;4.13;;;3.30;;
17985;SDS011;9118;48.122;11.546;2023-04-25T04:43:51;2.93;;;2.63;;
17985;SDS011;9118;48.122;11.546;2023-04-25T04:46:21;5.03;;;2.80;;
17985;SDS011;9118;48.122;11.546;2023-04-25T04:48:51;4.63;;;3.20;;
17985;SDS011;9118;48.122;11.546;2023-04-25T04:51:18;4.20;;;2.80;;
17985;SDS011;9118;48.122;11.546;2023-04-25T04:53:46;3.57;;;2.80;;
17985;SDS011;9118;48.122;11.546;2023-04-25T04:56:13;5.07;;;3.03;;
17985;SDS011;9118;48.122;11.546;2023-04-25T04:58:40;5.27;;;2.60;;
17985;SDS011;9118;48.122;11.546;2023-04-25T05:01:07;3.77;;;2.70;;
17985;SDS011;9118;48.122;11.546;2023-04-25T05:03:35;3.57;;;2.57;;
17985;SDS011;9118;48.122;11.546;2023-04-25T05:06:04;2.70;;;2.50;;
17985;SDS011;9118;48.122;11.546;2023-04-25T05:08:31;3.60;;;2.70;;
17985;SDS011;9118;48.122;11.546;2023-04-25T05:10:58;2.70;;;2.50;;
17985;SDS011;9118;48.122;11.546;2023-04-25T05:13:26;4.60;;;3.03;;
17985;SDS011;9118;48.122;11.546;2023-04-25T05:15:56;4.97;;;3.17;;
17985;SDS011;9118;48.122;11.546;2023-04-25T05:18:24;5.80;;;3.20;;
17985;SDS011;9118;48.122;11.546;2023-04-25T05:20:51;7.47;;;3.40;;
17985;SDS011;9118;48.122;11.546;2023-04-25T05:23:22;3.80;;;2.90;;
17985;SDS011;9118;48.122;11.546;2023-04-25T05:25:50;10.13;;;3.17;;
17985;SDS011;9118;48.122;11.546;2023-04-25T05:28:17;4.93;;;2.90;;
17985;SDS011;9118;48.122;11.546;2023-04-25T05:30:45;4.07;;;2.93;;
17985;SDS011;9118;48.122;11.546;2023-04-25T05:33:13;5.07;;;2.87;;
17985;SDS011;9118;48.122;11.546;2023-04-25T05:35:40;3.23;;;2.80;;
17985;SDS011;9118;48.122;11.546;2023-04-25T05:38:08;10.73;;;6.27;;
17985;SDS011;9118;48.122;11.546;2023-04-25T05:40:36;5.73;;;3.30;;
17985;SDS011;9118;48.122;11.546;2023-04-25T05:43:03;3.53;;;3.00;;
17985;SDS011;9118;48.122;11.546;2023-04-25T05:45:30;3.53;;;2.93;;
17985;SDS011;9118;48.122;11.546;2023-04-25T05:47:57;6.23;;;3.70;;
17985;SDS011;9118;48.122;11.546;2023-04-25T05:50:26;5.80;;;3.20;;
17985;SDS011;9118;48.122;11.546;2023-04-25T05:52:53;5.77;;;3.10;;
17985;SDS011;9118;48.122;11.546;2023-04-25T05:55:22;2.90;;;2.60;;
17985;SDS011;9118;48.122;11.546;2023-04-25T05:57:51;5.17;;;3.37;;
17985;SDS011;9118;48.122;11.546;2023-04-25T06:00:19;2.90;;;2.60;;
17985;SDS011;9118;48.122;11.546;2023-04-25T06:02:47;4.60;;;3.60;;
17985;SDS011;9118;48.122;11.546;2023-04-25T06:05:15;8.33;;;4.80;;
17985;SDS011;9118;48.122;11.546;2023-04-25T06:07:42;7.23;;;3.47;;
17985;SDS011;9118;48.122;11.546;2023-04-25T06:10:10;5.10;;;2.87;;
17985;SDS011;9118;48.122;11.546;2023-04-25T06:12:37;3.73;;;2.97;;
17985;SDS011;9118;48.122;11.546;2023-04-25T06:15:08;4.47;;;3.10;;
17985;SDS011;9118;48.122;11.546;2023-04-25T06:17:35;3.93;;;3.53;;
17985;SDS011;9118;48.122;11.546;2023-04-25T06:20:02;4.43;;;3.20;;
17985;SDS011;9118;48.122;11.546;2023-04-25T06:22:33;5.83;;;3.30;;
17985;SDS011;9118;48.122;11.546;2023-04-25T06:25:00;5.10;;;3.90;;
17985;SDS011;9118;48.122;11.546;2023-04-25T06:27:29;6.17;;;5.30;;
17985;SDS011;9118;48.122;11.546;2023-04-25T06:29:56;6.37;;;4.73;;
17985;SDS011;9118;48.122;11.546;2023-04-25T06:32:25;4.90;;;4.40;;
17985;SDS011;9118;48.122;11.546;2023-04-25T06:34:53;5.00;;;4.50;;
17985;SDS011;9118;48.122;11.546;2023-04-25T06:37:20;7.10;;;4.50;;
17985;SDS011;9118;48.122;11.546;2023-04-25T06:39:47;5.93;;;4.50;;
17985;SDS011;9118;48.122;11.546;2023-04-25T06:42:14;6.30;;;4.07;;
17985;SDS011;9118;48.122;11.546;2023-04-25T06:44:41;6.20;;;4.13;;
17985;SDS011;9118;48.122;11.546;2023-04-25T06:47:08;6.07;;;4.20;;
17985;SDS011;9118;48.122;11.546;2023-04-25T06:49:37;6.10;;;3.97;;
17985;SDS011;9118;48.122;11.546;2023-04-25T06:52:04;6.00;;;4.10;;
17985;SDS011;9118;48.122;11.546;2023-04-25T06:54:31;5.40;;;4.20;;
17985;SDS011;9118;48.122;11.546;2023-04-25T06:56:58;5.53;;;4.07;;
17985;SDS011;9118;48.122;11.546;2023-04-25T06:59:26;4.80;;;4.30;;
17985;SDS011;9118;48.122;11.546;2023-04-25T07:01:53;5.57;;;4.10;;
17985;SDS011;9118;48.122;11.546;2023-04-25T07:04:22;7.13;;;4.10;;
17985;SDS011;9118;48.122;11.546;2023-04-25T07:07:05;5.70;;;3.90;;
17985;SDS011;9118;48.122;11.546;2023-04-25T07:09:32;5.00;;;4.10;;
17985;SDS011;9118;48.122;11.546;2023-04-25T07:11:59;5.53;;;4.77;;
17985;SDS011;9118;48.122;11.546;2023-04-25T07:14:35;4.80;;;4.30;;
17985;SDS011;9118;48.122;11.546;2023-04-25T07:17:02;7.33;;;4.33;;
17985;SDS011;9118;48.122;11.546;2023-04-25T07:19:31;7.60;;;4.10;;
17985;SDS011;9118;48.122;11.546;2023-04-25T07:21:59;5.77;;;4.23;;
17985;SDS011;9118;48.122;11.546;2023-04-25T07:24:27;5.40;;;4.07;;
17985;SDS011;9118;48.122;11.546;2023-04-25T07:26:55;4.50;;;3.80;;
17985;SDS011;9118;48.122;11.546;2023-04-25T07:29:23;5.67;;;3.60;;
17985;SDS011;9118;48.122;11.546;2023-04-25T07:31:50;6.73;;;3.50;;
17985;SDS011;9118;48.122;11.546;2023-04-25T07:34:18;12.87;;;5.43;;
17985;SDS011;9118;48.122;11.546;2023-04-25T07:38:52;7.60;;;4.90;;
17985;SDS011;9118;48.122;11.546;2023-04-25T07:40:09;8.77;;;4.33;;
17985;SDS011;9118;48.122;11.546;2023-04-25T07:42:37;6.57;;;5.07;;
17985;SDS011;9118;48.122;11.546;2023-04-25T07:45:05;5.47;;;4.40;;
17985;SDS011;9118;48.122;11.546;2023-04-25T07:47:34;5.10;;;4.60;;
17985;SDS011;9118;48.122;11.546;2023-04-25T07:50:01;6.10;;;4.60;;
17985;SDS011;9118;48.122;11.546;2023-04-25T07:52:29;6.30;;;4.70;;
17985;SDS011;9118;48.122;11.546;2023-04-25T07:54:57;8.10;;;4.77;;
17985;SDS011;9118;48.122;11.546;2023-04-25T07:57:27;4.60;;;4.20;;
17985;SDS011;9118;48.122;11.546;2023-04-25T07:59:54;6.13;;;4.70;;
17985;SDS011;9118;48.122;11.546;2023-04-25T08:02:21;7.80;;;3.90;;
17985;SDS011;9118;48.122;11.546;2023-04-25T08:04:48;6.27;;;4.30;;
17985;SDS011;9118;48.122;11.546;2023-04-25T08:07:15;4.70;;;3.80;;
17985;SDS011;9118;48.122;11.546;2023-04-25T08:09:42;5.63;;;3.90;;
17985;SDS011;9118;48.122;11.546;2023-04-25T08:12:09;6.30;;;4.57;;
17985;SDS011;9118;48.122;11.546;2023-04-25T08:14:39;4.37;;;3.97;;
17985;SDS011;9118;48.122;11.546;2023-04-25T08:17:06;5.47;;;4.20;;
17985;SDS011;9118;48.122;11.546;2023-04-25T08:19:34;5.30;;;3.60;;
17985;SDS011;9118;48.122;11.546;2023-04-25T08:22:02;5.93;;;3.77;;
17985;SDS011;9118;48.122;11.546;2023-04-25T08:24:29;6.70;;;4.10;;
17985;SDS011;9118;48.122;11.546;2023-04-25T08:26:56;5.67;;;4.20;;
17985;SDS011;9118;48.122;11.546;2023-04-25T08:29:24;5.97;;;4.07;;
17985;SDS011;9118;48.122;11.546;2023-04-25T08:31:52;5.67;;;3.60;;
17985;SDS011;9118;48.122;11.546;2023-04-25T08:34:19;5.20;;;3.57;;
17985;SDS011;9118;48.122;11.546;2023-04-25T08:36:47;6.33;;;3.80;;
17985;SDS011;9118;48.122;11.546;2023-04-25T08:39:18;4.77;;;3.73;;
17985;SDS011;9118;48.122;11.546;2023-04-25T08:41:46;4.97;;;4.13;;
17985;SDS011;9118;48.122;11.546;2023-04-25T08:44:13;4.70;;;3.67;;
17985;SDS011;9118;48.122;11.546;2023-04-25T08:46:42;4.20;;;3.60;;
17985;SDS011;9118;48.122;11.546;2023-04-25T08:49:26;4.63;;;4.20;;
17985;SDS011;9118;48.122;11.546;2023-04-25T08:51:53;3.57;;;3.20;;
17985;SDS011;9118;48.122;11.546;2023-04-25T08:54:26;3.67;;;2.60;;
17985;SDS011;9118;48.122;11.546;2023-04-25T08:56:57;3.97;;;2.80;;
17985;SDS011;9118;48.122;11.546;2023-04-25T08:59:28;3.13;;;2.83;;
17985;SDS011;9118;48.122;11.546;2023-04-25T09:01:56;3.43;;;2.40;;
17985;SDS011;9118;48.122;11.546;2023-04-25T09:04:27;3.20;;;2.90;;
17985;SDS011;9118;48.122;11.546;2023-04-25T09:06:57;4.47;;;2.63;;
17985;SDS011;9118;48.122;11.546;2023-04-25T09:09:24;3.57;;;2.97;;
17985;SDS011;9118;48.122;11.546;2023-04-25T09:11:52;4.23;;;2.77;;
17985;SDS011;9118;48.122;11.546;2023-04-25T09:14:22;3.27;;;2.73;;
17985;SDS011;9118;48.122;11.546;2023-04-25T09:16:57;3.37;;;2.50;;
17985;SDS011;9118;48.122;11.546;2023-04-25T09:19:27;3.00;;;2.60;;
17985;SDS011;9118;48.122;11.546;2023-04-25T09:21:55;3.00;;;2.70;;
17985;SDS011;9118;48.122;11.546;2023-04-25T09:24:36;3.40;;;2.87;;
17985;SDS011;9118;48.122;11.546;2023-04-25T09:27:11;2.50;;;2.30;;
17985;SDS011;9118;48.122;11.546;2023-04-25T09:29:48;2.60;;;2.40;;
17985;SDS011;9118;48.122;11.546;2023-04-25T09:32:32;3.30;;;2.30;;
17985;SDS011;9118;48.122;11.546;2023-04-25T09:35:02;3.10;;;2.63;;
17985;SDS011;9118;48.122;11.546;2023-04-25T09:37:31;4.87;;;2.70;;
17985;SDS011;9118;48.122;11.546;2023-04-25T09:40:00;4.67;;;2.73;;
17985;SDS011;9118;48.122;11.546;2023-04-25T09:42:42;2.90;;;2.50;;
17985;SDS011;9118;48.122;11.546;2023-04-25T09:45:23;4.53;;;3.00;;
17985;SDS011;9118;48.122;11.546;2023-04-25T09:51:39;2.73;;;2.40;;
17985;SDS011;9118;48.122;11.546;2023-04-25T09:54:07;2.97;;;2.20;;
17985;SDS011;9118;48.122;11.546;2023-04-25T09:56:37;5.00;;;2.70;;
17985;SDS011;9118;48.122;11.546;2023-04-25T09:59:13;3.30;;;2.97;;
17985;SDS011;9118;48.122;11.546;2023-04-25T10:01:41;2.77;;;2.50;;
17985;SDS011;9118;48.122;11.546;2023-04-25T10:04:10;3.10;;;2.47;;
17985;SDS011;9118;48.122;11.546;2023-04-25T10:06:40;4.90;;;2.60;;
17985;SDS011;9118;48.122;11.546;2023-04-25T10:09:09;3.43;;;2.30;;
17985;SDS011;9118;48.122;11.546;2023-04-25T10:11:38;2.93;;;2.43;;
17985;SDS011;9118;48.122;11.546;2023-04-25T10:14:05;6.47;;;2.70;;
17985;SDS011;9118;48.122;11.546;2023-04-25T10:16:34;3.20;;;2.80;;
17985;SDS011;9118;48.122;11.546;2023-04-25T10:19:04;3.23;;;2.33;;
17985;SDS011;9118;48.122;11.546;2023-04-25T10:21:32;2.50;;;2.30;;
17985;SDS011;9118;48.122;11.546;2023-04-25T10:24:03;3.97;;;2.80;;
17985;SDS011;9118;48.122;11.546;2023-04-25T10:26:31;2.57;;;2.37;;
17985;SDS011;9118;48.122;11.546;2023-04-25T10:28:59;3.37;;;2.60;;
17985;SDS011;9118;48.122;11.546;2023-04-25T10:31:29;2.67;;;2.43;;
17985;SDS011;9118;48.122;11.546;2023-04-25T10:33:56;4.77;;;2.90;;
17985;SDS011;9118;48.122;11.546;2023-04-25T10:36:38;2.50;;;2.30;;
17985;SDS011;9118;48.122;11.546;2023-04-25T10:39:11;2.77;;;2.30;;
17985;SDS011;9118;48.122;11.546;2023-04-25T10:41:53;2.97;;;2.07;;
17985;SDS011;9118;48.122;11.546;2023-04-25T10:44:22;2.83;;;2.50;;
17985;SDS011;9118;48.122;11.546;2023-04-25T10:46:49;2.30;;;2.10;;
17985;SDS011;9118;48.122;11.546;2023-04-25T10:49:32;2.13;;;1.90;;
17985;SDS011;9118;48.122;11.546;2023-04-25T10:52:13;1.93;;;1.83;;
17985;SDS011;9118;48.122;11.546;2023-04-25T10:54:44;2.07;;;1.87;;
17985;SDS011;9118;48.122;11.546;2023-04-25T10:57:32;2.10;;;1.90;;
17985;SDS011;9118;48.122;11.546;2023-04-25T11:00:11;3.83;;;2.30;;
17985;SDS011;9118;48.122;11.546;2023-04-25T11:02:43;2.60;;;2.40;;
17985;SDS011;9118;48.122;11.546;2023-04-25T11:05:16;4.37;;;2.87;;
17985;SDS011;9118;48.122;11.546;2023-04-25T11:07:54;2.63;;;2.43;;
17985;SDS011;9118;48.122;11.546;2023-04-25T11:10:26;2.83;;;2.60;;
17985;SDS011;9118;48.122;11.546;2023-04-25T11:12:54;3.60;;;2.23;;
17985;SDS011;9118;48.122;11.546;2023-04-25T11:15:22;2.83;;;2.17;;
17985;SDS011;9118;48.122;11.546;2023-04-25T11:17:50;3.37;;;2.10;;
17985;SDS011;9118;48.122;11.546;2023-04-25T11:20:18;1.97;;;1.87;;
17985;SDS011;9118;48.122;11.546;2023-04-25T11:22:47;2.03;;;1.90;;
17985;SDS011;9118;48.122;11.546;2023-04-25T11:25:15;2.77;;;1.93;;
17985;SDS011;9118;48.122;11.546;2023-04-25T11:27:53;3.30;;;2.00;;
17985;SDS011;9118;48.122;11.546;2023-04-25T11:30:22;4.33;;;1.67;;
17985;SDS011;9118;48.122;11.546;2023-04-25T11:32:51;1.83;;;1.73;;
17985;SDS011;9118;48.122;11.546;2023-04-25T11:35:21;1.70;;;1.60;;
17985;SDS011;9118;48.122;11.546;2023-04-25T11:37:50;2.97;;;2.20;;
17985;SDS011;9118;48.122;11.546;2023-04-25T11:40:18;1.83;;;1.73;;
17985;SDS011;9118;48.122;11.546;2023-04-25T11:42:45;4.90;;;2.03;;
17985;SDS011;9118;48.122;11.546;2023-04-25T11:45:15;3.00;;;2.53;;
17985;SDS011;9118;48.122;11.546;2023-04-25T11:47:43;2.53;;;2.23;;
17985;SDS011;9118;48.122;11.546;2023-04-25T11:50:13;2.70;;;2.43;;
17985;SDS011;9118;48.122;11.546;2023-04-25T11:52:43;4.03;;;2.40;;
17985;SDS011;9118;48.122;11.546;2023-04-25T11:55:12;3.30;;;2.30;;
17985;SDS011;9118;48.122;11.546;2023-04-25T11:57:43;2.67;;;2.37;;
17985;SDS011;9118;48.122;11.546;2023-04-25T12:00:15;2.07;;;1.90;;
17985;SDS011;9118;48.122;11.546;2023-04-25T12:02:50;2.17;;;1.97;;
17985;SDS011;9118;48.122;11.546;2023-04-25T12:05:19;2.17;;;1.80;;
17985;SDS011;9118;48.122;11.546;2023-04-25T12:07:51;1.80;;;1.70;;
17985;SDS011;9118;48.122;11.546;2023-04-25T12:10:21;1.70;;;1.60;;
17985;SDS011;9118;48.122;11.546;2023-04-25T12:12:50;1.87;;;1.67;;
17985;SDS011;9118;48.122;11.546;2023-04-25T12:15:24;1.90;;;1.70;;
17985;SDS011;9118;48.122;11.546;2023-04-25T12:17:52;2.30;;;2.10;;
17985;SDS011;9118;48.122;11.546;2023-04-25T12:20:20;2.50;;;1.90;;
17985;SDS011;9118;48.122;11.546;2023-04-25T12:22:51;1.87;;;1.77;;
17985;SDS011;9118;48.122;11.546;2023-04-25T12:28:11;1.80;;;1.70;;
17985;SDS011;9118;48.122;11.546;2023-04-25T12:30:54;1.77;;;1.40;;
17985;SDS011;9118;48.122;11.546;2023-04-25T12:33:23;1.57;;;1.47;;
17985;SDS011;9118;48.122;11.546;2023-04-25T12:35:50;1.80;;;1.70;;
17985;SDS011;9118;48.122;11.546;2023-04-25T12:38:21;1.77;;;1.63;;
17985;SDS011;9118;48.122;11.546;2023-04-25T12:40:49;1.77;;;1.60;;
17985;SDS011;9118;48.122;11.546;2023-04-25T12:43:17;1.63;;;1.50;;
17985;SDS011;9118;48.122;11.546;2023-04-25T12:45:49;2.17;;;1.60;;
17985;SDS011;9118;48.122;11.546;2023-04-25T12:48:20;1.60;;;1.50;;
17985;SDS011;9118;48.122;11.546;2023-04-25T12:50:48;1.73;;;1.60;;
17985;SDS011;9118;48.122;11.546;2023-04-25T12:53:17;2.23;;;1.60;;
17985;SDS011;9118;48.122;11.546;2023-04-25T12:55:45;1.70;;;1.60;;
17985;SDS011;9118;48.122;11.546;2023-04-25T12:58:13;2.10;;;1.90;;
17985;SDS011;9118;48.122;11.546;2023-04-25T13:00:40;1.50;;;1.40;;
17985;SDS011;9118;48.122;11.546;2023-04-25T13:03:08;1.43;;;1.30;;
17985;SDS011;9118;48.122;11.546;2023-04-25T13:05:39;1.30;;;1.20;;
17985;SDS011;9118;48.122;11.546;2023-04-25T13:08:06;1.57;;;1.47;;
17985;SDS011;9118;48.122;11.546;2023-04-25T13:10:34;1.47;;;1.37;;
17985;SDS011;9118;48.122;11.546;2023-04-25T13:13:04;1.27;;;1.17;;
17985;SDS011;9118;48.122;11.546;2023-04-25T13:15:31;1.33;;;1.23;;
17985;SDS011;9118;48.122;11.546;2023-04-25T13:17:58;1.47;;;1.37;;
17985;SDS011;9118;48.122;11.546;2023-04-25T13:20:35;1.20;;;1.20;;
17985;SDS011;9118;48.122;11.546;2023-04-25T13:23:04;1.63;;;1.53;;
17985;SDS011;9118;48.122;11.546;2023-04-25T13:25:31;2.63;;;1.53;;
17985;SDS011;9118;48.122;11.546;2023-04-25T13:27:59;1.70;;;1.60;;
17985;SDS011;9118;48.122;11.546;2023-04-25T13:30:26;1.70;;;1.60;;
17985;SDS011;9118;48.122;11.546;2023-04-25T13:32:53;1.40;;;1.30;;
17985;SDS011;9118;48.122;11.546;2023-04-25T13:35:22;1.90;;;1.80;;
17985;SDS011;9118;48.122;11.546;2023-04-25T13:37:49;2.83;;;1.70;;
17985;SDS011;9118;48.122;11.546;2023-04-25T13:40:18;2.00;;;1.80;;
17985;SDS011;9118;48.122;11.546;2023-04-25T13:42:46;1.93;;;1.73;;
17985;SDS011;9118;48.122;11.546;2023-04-25T13:45:13;1.90;;;1.70;;
17985;SDS011;9118;48.122;11.546;2023-04-25T13:47:41;3.13;;;1.97;;
17985;SDS011;9118;48.122;11.546;2023-04-25T13:50:08;2.20;;;1.60;;
17985;SDS011;9118;48.122;11.546;2023-04-25T13:52:37;1.73;;;1.60;;
17985;SDS011;9118;48.122;11.546;2023-04-25T13:55:05;1.77;;;1.67;;
17985;SDS011;9118;48.122;11.546;2023-04-25T13:57:35;1.97;;;1.83;;
17985;SDS011;9118;48.122;11.546;2023-04-25T14:00:03;1.60;;;1.50;;
17985;SDS011;9118;48.122;11.546;2023-04-25T14:02:33;1.70;;;1.47;;
17985;SDS011;9118;48.122;11.546;2023-04-25T14:05:01;1.70;;;1.60;;
17985;SDS011;9118;48.122;11.546;2023-04-25T14:07:28;1.43;;;1.33;;
17985;SDS011;9118;48.122;11.546;2023-04-25T14:09:56;1.40;;;1.33;;
17985;SDS011;9118;48.122;11.546;2023-04-25T14:12:23;1.20;;;1.20;;
17985;SDS011;9118;48.122;11.546;2023-04-25T14:14:53;1.57;;;1.40;;
17985;SDS011;9118;48.122;11.546;2023-04-25T14:17:24;2.57;;;1.67;;
17985;SDS011;9118;48.122;11.546;2023-04-25T14:19:51;2.23;;;1.00;;
17985;SDS011;9118;48.122;11.546;2023-04-25T14:22:18;2.10;;;1.03;;
17985;SDS011;9118;48.122;11.546;2023-04-25T14:24:45;1.23;;;1.10;;
17985;SDS011;9118;48.122;11.546;2023-04-25T14:27:13;1.20;;;1.10;;
17985;SDS011;9118;48.122;11.546;2023-04-25T14:29:40;1.57;;;1.20;;
17985;SDS011;9118;48.122;11.546;2023-04-25T14:32:12;1.20;;;1.10;;
17985;SDS011;9118;48.122;11.546;2023-04-25T14:34:39;2.30;;;1.40;;
17985;SDS011;9118;48.122;11.546;2023-04-25T14:39:55;1.73;;;1.50;;
17985;SDS011;9118;48.122;11.546;2023-04-25T14:42:22;1.33;;;1.23;;
17985;SDS011;9118;48.122;11.546;2023-04-25T14:44:49;1.80;;;1.70;;
17985;SDS011;9118;48.122;11.546;2023-04-25T14:47:18;1.50;;;1.40;;
17985;SDS011;9118;48.122;11.546;2023-04-25T14:49:45;1.60;;;1.50;;
17985;SDS011;9118;48.122;11.546;2023-04-25T14:52:25;1.50;;;1.40;;
17985;SDS011;9118;48.122;11.546;2023-04-25T14:55:08;1.50;;;1.40;;
17985;SDS011;9118;48.122;11.546;2023-04-25T14:57:35;1.50;;;1.30;;
17985;SDS011;9118;48.122;11.546;2023-04-25T15:00:04;1.03;;;1.00;;
17985;SDS011;9118;48.122;11.546;2023-04-25T15:02:36;1.37;;;1.27;;
17985;SDS011;9118;48.122;11.546;2023-04-25T15:05:04;1.07;;;1.07;;
17985;SDS011;9118;48.122;11.546;2023-04-25T15:07:32;1.97;;;1.27;;